aviador You're here:

MMZC Decoded Metar

ZACATECAS in MEXICO
Report Time2017-11-20 20:46:00
UTC Time2017-11-20 21:16:30
Flight Rules vfr VFR
Wind230° at 10 kt
W.Decomp.*RWY 20: 9.3 kt HW 3.7 kt RCW
W.Rank230° ranks 5
Current wind is below 230° avg. (10.9)
Visibility9999 m
Phenomena:N/A
Clouds:Few 040 Hf
Expected CloudBase > 9,600 ft AGL from Temp-Dew spread
CeilingNone
Temp23°C (ISA +22)
Dew Point-1°C (20% RH)
AAT17.2°C
QNH1023 hPa
Density Alt9,413 ft
Elevation7,142 ft
Report Wrong Elevation
Raw Report
MMZC 202046Z 23010KT 10SM FEW040 23/M01 A3021 RMK 8/100=

Extra information for MMZC:More info

Metar Taf Metar & Taf Last 4 Metars F.Rules Stats Wind Profile Meteogram Temp Stats Airport Information Weather charts Add Link Nearby VenuesMetar ALERT Operation Metar Decoded Social comments